createdAt,value
2019-02-11T00:01:01.895Z,1.10
2019-02-11T00:03:31.574Z,1.37
2019-02-11T00:06:01.244Z,2.00
2019-02-11T00:08:30.864Z,1.47
2019-02-11T00:11:00.579Z,1.95
2019-02-11T00:13:30.233Z,1.65
2019-02-11T00:15:59.887Z,1.80
2019-02-11T00:18:29.560Z,2.15
2019-02-11T00:20:59.220Z,2.20
2019-02-11T00:23:28.859Z,1.62
2019-02-11T00:25:58.586Z,1.75
2019-02-11T00:28:28.251Z,1.82
2019-02-11T00:30:57.984Z,1.30
2019-02-11T00:33:27.612Z,1.17
2019-02-11T00:35:57.301Z,1.50
2019-02-11T00:38:26.991Z,1.10
2019-02-11T00:40:56.644Z,1.00
2019-02-11T00:43:26.329Z,1.20
2019-02-11T00:45:55.989Z,1.55
2019-02-11T00:48:25.680Z,1.80
2019-02-11T00:50:55.361Z,1.32
2019-02-11T00:53:25.112Z,1.85
2019-02-11T00:55:54.778Z,1.67
2019-02-11T00:58:24.478Z,2.40
2019-02-11T01:00:54.127Z,1.62
2019-02-11T01:03:23.837Z,1.95
2019-02-11T01:05:53.552Z,1.85
2019-02-11T01:08:23.207Z,2.00
2019-02-11T01:10:52.871Z,1.72
2019-02-11T01:13:27.797Z,1.80
2019-02-11T01:15:53.875Z,2.08
2019-02-11T01:18:23.552Z,1.30
2019-02-11T01:20:53.244Z,1.25
2019-02-11T01:23:22.882Z,1.47
2019-02-11T01:25:52.539Z,1.00
2019-02-11T01:28:22.246Z,0.70
2019-02-11T01:30:51.928Z,0.70
2019-02-11T01:33:21.587Z,0.70
2019-02-11T01:35:51.302Z,0.72
2019-02-11T01:38:20.939Z,0.60
2019-02-11T01:40:50.669Z,0.75
2019-02-11T01:43:20.389Z,0.70
2019-02-11T01:45:50.067Z,1.10
2019-02-11T01:48:19.732Z,0.70
2019-02-11T01:50:49.444Z,0.75
2019-02-11T01:53:19.066Z,0.70
2019-02-11T01:55:48.729Z,0.80
2019-02-11T01:58:18.383Z,1.00
2019-02-11T02:00:48.029Z,0.90
2019-02-11T02:03:17.687Z,0.90
2019-02-11T02:05:47.325Z,0.88
2019-02-11T02:08:17.005Z,0.90
2019-02-11T02:10:46.661Z,1.10
2019-02-11T02:13:16.337Z,1.52
2019-02-11T02:15:45.954Z,1.95
2019-02-11T02:18:15.599Z,1.30
2019-02-11T02:20:45.227Z,1.10
2019-02-11T02:23:14.883Z,1.70
2019-02-11T02:25:44.565Z,1.30
2019-02-11T02:28:14.313Z,1.30
2019-02-11T02:30:43.957Z,0.90
2019-02-11T02:33:13.633Z,1.10
2019-02-11T02:35:43.343Z,1.00
2019-02-11T02:38:13.036Z,0.88
2019-02-11T02:40:42.660Z,0.80
2019-02-11T02:43:12.370Z,0.90
2019-02-11T02:45:42.013Z,0.80
2019-02-11T02:48:11.682Z,0.70
2019-02-11T02:50:41.319Z,0.70
2019-02-11T02:53:11.017Z,0.80
2019-02-11T02:55:40.677Z,0.90
2019-02-11T02:58:10.306Z,0.60
2019-02-11T03:00:39.949Z,0.80
2019-02-11T03:03:09.583Z,1.10
2019-02-11T03:05:39.215Z,0.70
2019-02-11T03:08:08.839Z,0.72
2019-02-11T03:10:38.529Z,0.80
2019-02-11T03:13:09.887Z,0.70
2019-02-11T03:15:39.508Z,0.72
2019-02-11T03:18:09.180Z,1.05
2019-02-11T03:20:38.823Z,0.93
2019-02-11T03:23:08.453Z,0.80
2019-02-11T03:25:38.106Z,1.00
2019-02-11T03:28:07.806Z,1.00
2019-02-11T03:30:37.466Z,1.12
2019-02-11T03:33:07.139Z,1.12
2019-02-11T03:35:36.796Z,1.57
2019-02-11T03:38:06.454Z,1.98
2019-02-11T03:40:36.689Z,2.62
2019-02-11T03:43:06.354Z,2.70
2019-02-11T03:45:36.039Z,2.80
2019-02-11T03:48:05.745Z,2.60
2019-02-11T03:50:35.420Z,2.75
2019-02-11T03:53:05.086Z,3.60
2019-02-11T03:55:34.752Z,3.98
2019-02-11T03:58:04.468Z,4.15
2019-02-11T04:00:34.141Z,3.15
2019-02-11T04:03:03.802Z,4.20
2019-02-11T04:05:33.457Z,4.53
2019-02-11T04:08:03.129Z,3.20
2019-02-11T04:10:32.814Z,5.15
2019-02-11T04:13:02.475Z,4.90
2019-02-11T04:15:32.134Z,4.92
2019-02-11T04:18:01.835Z,5.95
2019-02-11T04:20:31.458Z,5.12
2019-02-11T04:23:01.118Z,5.97
2019-02-11T04:25:30.779Z,5.25
2019-02-11T04:28:00.446Z,5.65
2019-02-11T04:30:30.290Z,4.37
2019-02-11T04:32:59.953Z,4.55
2019-02-11T04:35:29.646Z,4.97
2019-02-11T04:37:59.331Z,4.42
2019-02-11T04:40:28.982Z,4.10
2019-02-11T04:42:58.610Z,5.40
2019-02-11T04:45:28.302Z,4.40
2019-02-11T04:47:57.969Z,5.72
2019-02-11T04:50:27.627Z,4.80
2019-02-11T04:52:57.292Z,4.42
2019-02-11T04:55:27.898Z,4.72
2019-02-11T04:57:57.553Z,4.58
2019-02-11T05:00:27.310Z,3.70
2019-02-11T05:02:56.960Z,4.30
2019-02-11T05:05:26.669Z,3.85
2019-02-11T05:07:59.324Z,2.87
2019-02-11T05:10:29.011Z,3.25
2019-02-11T05:12:58.665Z,2.80
2019-02-11T05:15:28.388Z,3.67
2019-02-11T05:17:58.060Z,2.80
2019-02-11T05:20:47.094Z,2.62
2019-02-11T05:23:16.759Z,2.20
2019-02-11T05:26:05.444Z,2.62
2019-02-11T05:28:35.095Z,2.08
2019-02-11T05:31:04.721Z,2.87
2019-02-11T05:33:53.370Z,2.45
2019-02-11T05:36:23.107Z,2.62
2019-02-11T05:38:52.797Z,1.80
2019-02-11T05:41:22.464Z,2.12
2019-02-11T05:43:52.099Z,1.52
2019-02-11T05:46:21.795Z,1.67
2019-02-11T05:48:51.450Z,1.90
2019-02-11T05:51:21.152Z,1.80
2019-02-11T05:53:50.808Z,2.40
2019-02-11T05:56:20.493Z,1.82
2019-02-11T05:58:50.171Z,2.62
2019-02-11T06:01:20.229Z,3.60
2019-02-11T06:03:49.907Z,3.30
2019-02-11T06:06:19.566Z,2.55
2019-02-11T06:08:49.217Z,2.42
2019-02-11T06:11:18.870Z,2.22
2019-02-11T06:13:48.544Z,3.10
2019-02-11T06:16:18.226Z,3.62
2019-02-11T06:18:47.895Z,2.95
2019-02-11T06:21:17.560Z,2.77
2019-02-11T06:23:47.237Z,2.65
2019-02-11T06:26:16.884Z,3.85
2019-02-11T06:28:46.602Z,3.20
2019-02-11T06:31:16.288Z,4.28
2019-02-11T06:33:46.032Z,2.80
2019-02-11T06:36:15.750Z,4.65
2019-02-11T06:38:45.462Z,3.05
2019-02-11T06:41:15.127Z,2.30
2019-02-11T06:43:44.816Z,3.90
2019-02-11T06:46:14.465Z,3.72
2019-02-11T06:48:44.134Z,3.02
2019-02-11T06:51:13.784Z,4.03
2019-02-11T06:53:43.525Z,3.62
2019-02-11T06:56:13.175Z,2.20
2019-02-11T06:58:42.809Z,3.30
2019-02-11T07:01:12.471Z,3.50
2019-02-11T07:03:42.236Z,2.87
2019-02-11T07:06:11.914Z,2.55
2019-02-11T07:08:41.577Z,3.08
2019-02-11T07:11:11.285Z,3.25
2019-02-11T07:13:40.960Z,3.15
2019-02-11T07:16:10.648Z,2.50
2019-02-11T07:18:40.348Z,2.77
2019-02-11T07:21:10.014Z,3.33
2019-02-11T07:23:39.830Z,3.42
2019-02-11T07:26:09.483Z,3.17
2019-02-11T07:28:39.176Z,2.77
2019-02-11T07:31:08.861Z,3.20
2019-02-11T07:33:38.561Z,2.67
2019-02-11T07:36:08.247Z,1.90
2019-02-11T07:38:37.966Z,2.25
2019-02-11T07:41:07.627Z,2.05
2019-02-11T07:43:44.472Z,2.58
2019-02-11T07:46:33.027Z,3.05
2019-02-11T07:49:02.758Z,4.50
2019-02-11T07:51:32.423Z,2.77
2019-02-11T07:54:02.199Z,2.87
2019-02-11T07:56:31.910Z,2.80
2019-02-11T07:59:01.599Z,2.30
2019-02-11T08:01:31.284Z,3.00
2019-02-11T08:04:00.993Z,2.10
2019-02-11T08:06:30.702Z,2.00
2019-02-11T08:09:00.370Z,2.20
2019-02-11T08:11:30.076Z,3.00
2019-02-11T08:13:59.733Z,6.55
2019-02-11T08:16:29.465Z,7.00
2019-02-11T08:18:59.115Z,4.65
2019-02-11T08:21:28.818Z,3.42
2019-02-11T08:23:58.451Z,4.10
2019-02-11T08:26:28.162Z,4.17
2019-02-11T08:28:57.852Z,4.17
2019-02-11T08:31:27.500Z,4.50
2019-02-11T08:33:57.150Z,3.10
2019-02-11T08:36:26.898Z,2.33
2019-02-11T08:38:56.687Z,3.65
2019-02-11T08:41:26.407Z,4.53
2019-02-11T08:43:56.045Z,5.12
2019-02-11T08:46:25.772Z,4.10
2019-02-11T08:48:55.450Z,3.10
2019-02-11T08:51:26.156Z,4.15
2019-02-11T08:53:55.907Z,5.72
2019-02-11T08:56:25.583Z,3.60
2019-02-11T08:58:55.194Z,3.55
2019-02-11T09:01:24.862Z,3.33
2019-02-11T09:03:54.618Z,4.05
2019-02-11T09:06:24.313Z,4.00
2019-02-11T09:08:53.950Z,3.92
2019-02-11T09:11:23.636Z,3.50
2019-02-11T09:13:53.294Z,4.83
2019-02-11T09:16:22.983Z,3.10
2019-02-11T09:18:52.610Z,3.50
2019-02-11T09:21:22.308Z,3.72
2019-02-11T09:23:51.952Z,3.27
2019-02-11T09:26:21.617Z,3.20
2019-02-11T09:28:51.248Z,2.80
2019-02-11T09:31:20.978Z,3.05
2019-02-11T09:33:50.618Z,2.87
2019-02-11T09:36:20.271Z,3.60
2019-02-11T09:38:49.925Z,3.00
2019-02-11T09:41:19.597Z,3.12
2019-02-11T09:43:49.209Z,3.25
2019-02-11T09:46:19.980Z,2.98
2019-02-11T09:48:49.626Z,3.65
2019-02-11T09:51:19.424Z,2.67
2019-02-11T09:53:49.048Z,3.25
2019-02-11T09:56:18.759Z,2.72
2019-02-11T09:58:48.373Z,3.70
2019-02-11T10:01:18.101Z,2.77
2019-02-11T10:03:47.790Z,3.08
2019-02-11T10:06:17.438Z,2.92
2019-02-11T10:08:47.104Z,5.20
2019-02-11T10:11:16.918Z,2.87
2019-02-11T10:13:46.567Z,2.27
2019-02-11T10:16:16.234Z,3.20
2019-02-11T10:18:45.961Z,3.58
2019-02-11T10:21:15.697Z,4.40
2019-02-11T10:23:45.377Z,3.83
2019-02-11T10:26:15.028Z,2.65
2019-02-11T10:28:44.705Z,3.33
2019-02-11T10:31:14.476Z,2.25
2019-02-11T10:33:44.322Z,3.30
2019-02-11T10:36:14.021Z,3.90
2019-02-11T10:38:43.699Z,3.90
2019-02-11T10:41:13.353Z,2.67
2019-02-11T10:43:43.004Z,4.10
2019-02-11T10:46:20.645Z,3.15
2019-02-11T10:48:44.207Z,4.80
2019-02-11T10:51:13.805Z,3.92
2019-02-11T10:53:43.475Z,3.15
2019-02-11T10:56:13.162Z,4.12
2019-02-11T10:58:42.850Z,4.20
2019-02-11T11:01:13.383Z,3.80
2019-02-11T11:03:43.130Z,3.17
2019-02-11T11:06:12.856Z,4.20
2019-02-11T11:08:42.614Z,4.30
2019-02-11T11:11:12.269Z,4.22
2019-02-11T11:13:41.921Z,4.53
2019-02-11T11:16:11.560Z,3.10
2019-02-11T11:18:41.216Z,3.62
2019-02-11T11:21:13.038Z,2.42
2019-02-11T11:23:42.735Z,3.87
2019-02-11T11:26:12.452Z,4.92
2019-02-11T11:28:42.127Z,3.95
2019-02-11T11:31:12.271Z,4.20
2019-02-11T11:33:42.044Z,3.85
2019-02-11T11:36:11.829Z,5.25
2019-02-11T11:38:41.511Z,2.80
2019-02-11T11:41:11.246Z,4.70
2019-02-11T11:43:40.964Z,3.20
2019-02-11T11:46:10.803Z,2.87
2019-02-11T11:48:40.458Z,4.22
2019-02-11T11:51:10.167Z,4.80
2019-02-11T11:53:39.949Z,3.80
2019-02-11T11:56:09.589Z,2.70
2019-02-11T11:58:39.494Z,2.87
2019-02-11T12:01:09.143Z,3.20
2019-02-11T12:03:38.857Z,3.70
2019-02-11T12:06:08.583Z,3.55
2019-02-11T12:08:38.242Z,3.37
2019-02-11T12:11:07.942Z,3.50
2019-02-11T12:13:37.611Z,2.80
2019-02-11T12:16:07.294Z,2.33
2019-02-11T12:18:36.967Z,3.50
2019-02-11T12:21:06.668Z,2.55
2019-02-11T12:23:36.439Z,3.55
2019-02-11T12:26:06.176Z,3.33
2019-02-11T12:28:35.830Z,3.25
2019-02-11T12:31:05.548Z,2.75
2019-02-11T12:33:35.250Z,3.35
2019-02-11T12:36:04.922Z,3.17
2019-02-11T12:38:34.632Z,3.50
2019-02-11T12:41:04.297Z,3.47
2019-02-11T12:43:33.995Z,3.27
2019-02-11T12:46:03.694Z,1.87
2019-02-11T12:48:33.358Z,3.42
2019-02-11T12:51:03.873Z,2.72
2019-02-11T12:53:33.851Z,3.40
2019-02-11T12:56:03.781Z,3.37
2019-02-11T12:58:33.495Z,2.25
2019-02-11T13:01:03.586Z,2.92
2019-02-11T13:03:33.229Z,2.30
2019-02-11T13:06:02.912Z,2.30
2019-02-11T13:08:32.610Z,5.33
2019-02-11T13:11:02.267Z,2.98
2019-02-11T13:13:31.945Z,2.60
2019-02-11T13:16:03.074Z,3.47
2019-02-11T13:18:33.150Z,2.47
2019-02-11T13:21:03.099Z,2.30
2019-02-11T13:23:32.842Z,1.77
2019-02-11T13:26:02.561Z,1.85
2019-02-11T13:28:32.253Z,1.67
2019-02-11T13:31:01.945Z,2.12
2019-02-11T13:33:31.626Z,2.75
2019-02-11T13:36:01.316Z,2.58
2019-02-11T13:38:31.009Z,1.55
2019-02-11T13:41:00.672Z,1.82
2019-02-11T13:43:30.317Z,2.00
2019-02-11T13:45:59.979Z,2.25
2019-02-11T13:48:33.822Z,2.70
2019-02-11T13:51:01.013Z,3.33
2019-02-11T13:53:30.685Z,1.57
2019-02-11T13:56:04.739Z,2.05
2019-02-11T13:58:31.742Z,1.70
2019-02-11T14:01:01.413Z,1.77
2019-02-11T14:03:31.050Z,2.50
2019-02-11T14:06:00.732Z,1.57
2019-02-11T14:08:30.445Z,3.25
2019-02-11T14:11:00.117Z,1.47
2019-02-11T14:13:30.116Z,1.72
2019-02-11T14:15:59.781Z,2.25
2019-02-11T14:18:29.485Z,2.22
2019-02-11T14:20:59.147Z,2.58
2019-02-11T14:23:28.839Z,1.10
2019-02-11T14:25:58.513Z,1.40
2019-02-11T14:28:28.146Z,1.47
2019-02-11T14:30:57.817Z,1.25
2019-02-11T14:33:27.571Z,1.52
2019-02-11T14:35:57.239Z,1.50
2019-02-11T14:38:26.963Z,1.60
2019-02-11T14:40:56.585Z,1.25
2019-02-11T14:43:26.282Z,2.20
2019-02-11T14:45:55.935Z,1.30
2019-02-11T14:48:28.285Z,0.90
2019-02-11T14:50:56.962Z,0.98
2019-02-11T14:53:26.728Z,1.00
2019-02-11T14:55:56.405Z,1.15
2019-02-11T14:58:26.114Z,1.10
2019-02-11T15:00:56.013Z,1.07
2019-02-11T15:03:25.676Z,1.05
2019-02-11T15:05:55.329Z,1.07
2019-02-11T15:08:25.017Z,0.93
2019-02-11T15:10:54.654Z,1.00
2019-02-11T15:13:24.294Z,0.70
2019-02-11T15:15:53.932Z,0.80
2019-02-11T15:18:23.602Z,0.80
2019-02-11T15:20:53.250Z,1.00
2019-02-11T15:23:22.938Z,1.32
2019-02-11T15:25:52.584Z,1.00
2019-02-11T15:28:22.267Z,1.47
2019-02-11T15:30:51.932Z,0.90
2019-02-11T15:33:21.600Z,1.40
2019-02-11T15:35:51.227Z,0.70
2019-02-11T15:38:20.942Z,1.10
2019-02-11T15:40:50.612Z,0.82
2019-02-11T15:43:20.329Z,1.37
2019-02-11T15:45:49.974Z,0.95
2019-02-11T15:48:19.636Z,1.27
2019-02-11T15:50:49.286Z,1.05
2019-02-11T15:53:19.073Z,1.30
2019-02-11T15:55:48.748Z,0.80
2019-02-11T15:58:18.421Z,0.78
2019-02-11T16:00:48.061Z,0.70
2019-02-11T16:03:17.698Z,1.07
2019-02-11T16:05:49.709Z,0.98
2019-02-11T16:08:18.686Z,0.80
2019-02-11T16:10:48.343Z,1.50
2019-02-11T16:13:17.999Z,0.85
2019-02-11T16:15:47.712Z,0.80
2019-02-11T16:18:17.349Z,1.10
2019-02-11T16:20:47.033Z,1.02
2019-02-11T16:23:16.680Z,0.80
2019-02-11T16:25:46.711Z,1.20
2019-02-11T16:28:16.385Z,1.02
2019-02-11T16:30:45.990Z,1.02
2019-02-11T16:33:15.714Z,1.40
2019-02-11T16:35:45.351Z,1.82
2019-02-11T16:38:15.051Z,1.42
2019-02-11T16:40:44.689Z,1.40
2019-02-11T16:43:14.377Z,1.05
2019-02-11T16:45:44.087Z,1.15
2019-02-11T16:48:13.803Z,1.47
2019-02-11T16:50:43.457Z,1.30
2019-02-11T16:53:13.106Z,1.00
2019-02-11T16:55:43.154Z,1.17
2019-02-11T16:58:12.827Z,1.30
2019-02-11T17:00:42.488Z,1.00
2019-02-11T17:03:12.113Z,1.00
2019-02-11T17:05:41.813Z,1.72
2019-02-11T17:08:11.458Z,1.20
2019-02-11T17:10:41.505Z,0.95
2019-02-11T17:13:11.208Z,1.75
2019-02-11T17:15:40.937Z,0.80
2019-02-11T17:18:10.611Z,1.30
2019-02-11T17:20:40.329Z,1.25
2019-02-11T17:23:09.966Z,1.80
2019-02-11T17:25:39.602Z,1.10
2019-02-11T17:28:09.777Z,1.12
2019-02-11T17:30:39.484Z,2.52
2019-02-11T17:33:09.179Z,1.17
2019-02-11T17:35:38.825Z,0.80
2019-02-11T17:38:08.489Z,1.80
2019-02-11T17:40:38.188Z,1.15
2019-02-11T17:43:07.835Z,1.17
2019-02-11T17:45:37.559Z,1.00
2019-02-11T17:48:07.246Z,1.30
2019-02-11T17:50:37.019Z,1.00
2019-02-11T17:53:07.337Z,1.22
2019-02-11T17:55:37.015Z,1.40
2019-02-11T17:58:06.812Z,1.12
2019-02-11T18:00:41.938Z,1.30
2019-02-11T18:03:11.658Z,1.22
2019-02-11T18:05:41.327Z,1.10
2019-02-11T18:08:11.033Z,0.90
2019-02-11T18:10:40.719Z,1.10
2019-02-11T18:13:10.362Z,1.17
2019-02-11T18:15:40.050Z,1.20
2019-02-11T18:18:09.771Z,1.17
2019-02-11T18:20:39.447Z,1.47
2019-02-11T18:23:09.142Z,1.02
2019-02-11T18:25:38.876Z,0.80
2019-02-11T18:28:08.541Z,1.05
2019-02-11T18:30:38.153Z,1.35
2019-02-11T18:33:07.893Z,1.25
2019-02-11T18:35:37.640Z,0.80
2019-02-11T18:38:08.938Z,1.10
2019-02-11T18:40:38.946Z,0.95
2019-02-11T18:43:08.823Z,1.05
2019-02-11T18:45:38.539Z,2.45
2019-02-11T18:48:08.237Z,1.05
2019-02-11T18:50:37.913Z,1.00
2019-02-11T18:53:07.609Z,1.27
2019-02-11T18:55:37.289Z,1.15
2019-02-11T18:58:06.922Z,1.45
2019-02-11T19:00:36.578Z,0.93
2019-02-11T19:03:06.309Z,1.40
2019-02-11T19:05:35.937Z,1.00
2019-02-11T19:08:05.601Z,1.20
2019-02-11T19:10:35.321Z,1.80
2019-02-11T19:13:05.141Z,1.02
2019-02-11T19:15:34.793Z,1.30
2019-02-11T19:18:04.594Z,1.60
2019-02-11T19:20:34.238Z,1.98
2019-02-11T19:23:03.861Z,1.67
2019-02-11T19:25:33.511Z,1.67
2019-02-11T19:28:03.170Z,1.37
2019-02-11T19:30:32.787Z,1.80
2019-02-11T19:33:02.412Z,1.95
2019-02-11T19:35:32.002Z,2.72
2019-02-11T19:38:01.676Z,1.98
2019-02-11T19:40:31.369Z,1.72
2019-02-11T19:43:01.047Z,1.92
2019-02-11T19:45:30.685Z,1.55
2019-02-11T19:48:00.393Z,1.45
2019-02-11T19:50:32.780Z,2.10
2019-02-11T19:53:02.501Z,2.55
2019-02-11T19:55:32.188Z,2.10
2019-02-11T19:58:01.901Z,3.87
2019-02-11T20:00:31.930Z,3.62
2019-02-11T20:03:01.682Z,2.25
2019-02-11T20:05:31.313Z,2.10
2019-02-11T20:08:00.990Z,2.62
2019-02-11T20:10:30.654Z,4.80
2019-02-11T20:13:00.340Z,5.97
2019-02-11T20:15:30.000Z,5.70
2019-02-11T20:17:59.656Z,2.80
2019-02-11T20:20:29.400Z,2.37
2019-02-11T20:22:59.081Z,2.22
2019-02-11T20:25:28.698Z,2.35
2019-02-11T20:27:58.365Z,3.70
2019-02-11T20:30:28.150Z,3.15
2019-02-11T20:32:57.801Z,3.10
2019-02-11T20:35:27.537Z,2.90
2019-02-11T20:37:58.899Z,3.05
2019-02-11T20:40:28.488Z,3.20
2019-02-11T20:42:58.139Z,5.20
2019-02-11T20:45:28.136Z,4.03
2019-02-11T20:47:57.769Z,4.05
2019-02-11T20:50:27.386Z,3.30
2019-02-11T20:52:57.207Z,3.98
2019-02-11T20:55:26.927Z,3.35
2019-02-11T20:57:57.771Z,3.58
2019-02-11T21:00:27.667Z,2.72
2019-02-11T21:02:57.444Z,4.15
2019-02-11T21:05:27.122Z,2.90
2019-02-11T21:07:56.775Z,2.80
2019-02-11T21:10:26.488Z,2.95
2019-02-11T21:12:56.180Z,4.10
2019-02-11T21:15:25.846Z,3.50
2019-02-11T21:17:55.547Z,2.95
2019-02-11T21:20:34.026Z,3.83
2019-02-11T21:23:04.046Z,5.28
2019-02-11T21:25:33.682Z,3.05
2019-02-11T21:28:03.900Z,3.70
2019-02-11T21:30:33.633Z,2.95
2019-02-11T21:33:03.283Z,3.65
2019-02-11T21:35:32.979Z,3.70
2019-02-11T21:38:02.738Z,3.47
2019-02-11T21:40:32.416Z,2.72
2019-02-11T21:43:02.084Z,3.65
2019-02-11T21:45:31.778Z,3.65
2019-02-11T21:48:01.440Z,3.80
2019-02-11T21:50:31.127Z,2.02
2019-02-11T21:53:00.935Z,3.08
2019-02-11T21:55:30.571Z,4.05
2019-02-11T21:58:00.181Z,2.65
2019-02-11T22:00:30.011Z,3.47
2019-02-11T22:02:59.773Z,3.90
2019-02-11T22:05:29.534Z,2.35
2019-02-11T22:07:59.319Z,3.17
2019-02-11T22:10:28.985Z,4.15
2019-02-11T22:12:59.057Z,2.90
2019-02-11T22:15:28.704Z,2.30
2019-02-11T22:17:58.320Z,3.00
2019-02-11T22:20:34.541Z,3.58
2019-02-11T22:22:59.331Z,3.92
2019-02-11T22:25:28.980Z,3.42
2019-02-11T22:27:58.705Z,3.02
2019-02-11T22:30:28.345Z,2.37
2019-02-11T22:32:58.031Z,2.42
2019-02-11T22:35:27.651Z,3.45
2019-02-11T22:37:57.309Z,3.15
2019-02-11T22:40:26.941Z,3.10
2019-02-11T22:42:56.593Z,4.70
2019-02-11T22:45:26.279Z,2.70
2019-02-11T22:47:55.936Z,2.58
2019-02-11T22:50:25.650Z,2.30
2019-02-11T22:52:55.284Z,2.80
2019-02-11T22:55:24.938Z,2.55
2019-02-11T22:57:54.638Z,2.60
2019-02-11T23:00:52.238Z,2.75
2019-02-11T23:03:21.898Z,2.37
2019-02-11T23:05:51.567Z,2.22
2019-02-11T23:08:21.255Z,1.60
2019-02-11T23:10:51.007Z,1.85
2019-02-11T23:13:20.675Z,3.00
2019-02-11T23:15:50.368Z,1.80
2019-02-11T23:18:20.051Z,2.08
2019-02-11T23:20:52.071Z,1.57
2019-02-11T23:23:20.993Z,2.33
2019-02-11T23:25:50.695Z,2.15
2019-02-11T23:28:20.382Z,3.92
2019-02-11T23:30:50.071Z,1.70
2019-02-11T23:33:19.687Z,2.15
2019-02-11T23:35:49.362Z,2.40
2019-02-11T23:38:19.076Z,3.60
2019-02-11T23:40:48.735Z,4.30
2019-02-11T23:43:18.427Z,2.42
2019-02-11T23:45:48.172Z,2.60
2019-02-11T23:48:17.850Z,2.25
2019-02-11T23:50:47.584Z,2.70
2019-02-11T23:53:17.229Z,2.10
2019-02-11T23:55:46.954Z,2.10
2019-02-11T23:58:16.614Z,2.10
